Time,TemperatureF,DewpointF,PressureIn,WindDirection,WindDirectionDegrees,WindSpeedMPH,WindSpeedGustMPH,Humidity,HourlyPrecipIn,Conditions,Clouds,dailyrainin,SoftwareType,DateUTC
2013-06-02 00:02:00,77.2,72.3,29.87,SSE,166,8.0,24.0,85,0.00,,,0.00,Wunderground v.1.15,2013-06-02 05:02:00,
2013-06-02 00:08:00,77.1,72.6,29.87,SE,143,8.0,24.0,86,0.00,,,0.00,Wunderground v.1.15,2013-06-02 05:08:00,
2013-06-02 00:14:00,76.9,72.4,29.87,SE,145,9.0,24.0,86,0.00,,,0.00,Wunderground v.1.15,2013-06-02 05:14:00,
2013-06-02 00:20:00,76.8,72.6,29.87,SE,134,9.0,24.0,87,0.00,,,0.00,Wunderground v.1.15,2013-06-02 05:20:00,
2013-06-02 00:26:00,76.6,72.4,29.87,SSE,155,10.0,24.0,87,0.00,,,0.00,Wunderground v.1.15,2013-06-02 05:26:00,
2013-06-02 00:32:00,76.4,72.2,29.86,SSE,153,10.0,24.0,87,0.00,,,0.00,Wunderground v.1.15,2013-06-02 05:32:00,
2013-06-02 00:38:00,76.3,72.5,29.86,SSE,158,10.0,24.0,88,0.00,,,0.00,Wunderground v.1.15,2013-06-02 05:38:00,
2013-06-02 00:44:00,76.1,72.3,29.86,SSE,155,10.0,24.0,88,0.00,,,0.00,Wunderground v.1.15,2013-06-02 05:44:00,
2013-06-02 00:50:00,75.9,72.4,29.86,SSE,167,9.0,24.0,89,0.00,,,0.00,Wunderground v.1.15,2013-06-02 05:50:00,
2013-06-02 00:56:00,75.8,72.3,29.86,SE,134,10.0,24.0,89,0.00,,,0.00,Wunderground v.1.15,2013-06-02 05:56:00,
2013-06-02 01:02:00,75.6,72.1,29.86,SE,141,9.0,11.0,89,0.00,,,0.00,Wunderground v.1.15,2013-06-02 06:02:00,
2013-06-02 01:08:00,75.5,72.4,29.86,SSE,167,8.0,24.0,90,0.00,,,0.00,Wunderground v.1.15,2013-06-02 06:08:00,
2013-06-02 01:14:00,75.3,72.2,29.86,SSE,163,8.0,24.0,90,0.00,,,0.00,Wunderground v.1.15,2013-06-02 06:14:00,
2013-06-02 01:20:00,75.2,72.1,29.86,SE,128,8.0,24.0,90,0.00,,,0.00,Wunderground v.1.15,2013-06-02 06:20:00,
2013-06-02 01:26:00,75.1,72.3,29.86,South,179,8.0,24.0,91,0.00,,,0.00,Wunderground v.1.15,2013-06-02 06:26:00,
2013-06-02 01:32:00,74.9,72.1,29.85,SSE,159,8.0,24.0,91,0.00,,,0.00,Wunderground v.1.15,2013-06-02 06:32:00,
2013-06-02 01:38:00,74.8,72.0,29.85,SE,137,9.0,24.0,91,0.00,,,0.00,Wunderground v.1.15,2013-06-02 06:38:00,
2013-06-02 01:44:00,74.7,72.2,29.86,SE,137,8.0,24.0,92,0.00,,,0.00,Wunderground v.1.15,2013-06-02 06:44:00,
2013-06-02 01:50:00,74.7,72.2,29.86,South,181,7.0,24.0,92,0.00,,,0.00,Wunderground v.1.15,2013-06-02 06:50:00,
2013-06-02 01:56:00,74.7,72.2,29.87,SE,145,6.0,24.0,92,0.00,,,0.00,Wunderground v.1.15,2013-06-02 06:56:00,
2013-06-02 02:02:00,74.7,72.2,29.86,SE,132,7.0,24.0,92,0.00,,,0.00,Wunderground v.1.15,2013-06-02 07:02:00,
2013-06-02 02:08:00,74.6,72.1,29.87,SE,145,5.0,24.0,92,0.00,,,0.00,Wunderground v.1.15,2013-06-02 07:08:00,
2013-06-02 02:14:00,74.5,72.0,29.88,SSE,148,4.0,24.0,92,0.00,,,0.00,Wunderground v.1.15,2013-06-02 07:14:00,
2013-06-02 02:20:00,74.5,72.0,29.89,SE,136,2.0,24.0,92,0.00,,,0.00,Wunderground v.1.15,2013-06-02 07:20:00,
2013-06-02 02:26:00,74.5,71.7,29.89,SSE,155,1.0,24.0,91,0.00,,,0.00,Wunderground v.1.15,2013-06-02 07:26:00,
2013-06-02 02:32:00,74.5,72.0,29.89,SSW,204,1.0,24.0,92,0.00,,,0.00,Wunderground v.1.15,2013-06-02 07:32:00,
2013-06-02 02:38:00,74.5,71.7,29.89,ESE,122,0.0,24.0,91,0.00,,,0.00,Wunderground v.1.15,2013-06-02 07:38:00,
2013-06-02 02:44:00,74.5,72.0,29.89,SSE,158,0.0,24.0,92,0.00,,,0.00,Wunderground v.1.15,2013-06-02 07:44:00,
2013-06-02 02:50:00,74.4,71.6,29.89,SE,127,1.0,24.0,91,0.00,,,0.00,Wunderground v.1.15,2013-06-02 07:50:00,
2013-06-02 02:56:00,74.4,71.6,29.89,SE,145,3.0,24.0,91,0.00,,,0.00,Wunderground v.1.15,2013-06-02 07:56:00,
2013-06-02 03:02:00,74.4,71.6,29.90,SSW,201,2.0,24.0,91,0.00,,,0.00,Wunderground v.1.15,2013-06-02 08:02:00,
2013-06-02 03:08:00,74.4,71.6,29.90,SSW,200,1.0,24.0,91,0.00,,,0.00,Wunderground v.1.15,2013-06-02 08:08:00,
2013-06-02 03:14:00,74.4,71.6,29.89,SE,141,1.0,24.0,91,0.00,,,0.00,Wunderground v.1.15,2013-06-02 08:14:00,
2013-06-02 03:20:00,74.3,71.5,29.89,SSE,158,2.0,24.0,91,0.00,,,0.00,Wunderground v.1.15,2013-06-02 08:20:00,
2013-06-02 03:26:00,74.2,71.4,29.89,SSE,155,2.0,24.0,91,0.00,,,0.00,Wunderground v.1.15,2013-06-02 08:26:00,
2013-06-02 03:32:00,74.2,71.7,29.89,SSW,208,2.0,24.0,92,0.00,,,0.00,Wunderground v.1.15,2013-06-02 08:32:00,
2013-06-02 03:38:00,74.1,71.6,29.88,South,176,2.0,24.0,92,0.00,,,0.00,Wunderground v.1.15,2013-06-02 08:38:00,
2013-06-02 03:44:00,74.1,71.6,29.88,SSE,162,3.0,24.0,92,0.00,,,0.00,Wunderground v.1.15,2013-06-02 08:44:00,
2013-06-02 03:50:00,74.0,71.5,29.88,SSW,203,3.0,3.0,92,0.00,,,0.00,Wunderground v.1.15,2013-06-02 08:50:00,
2013-06-02 03:56:00,74.0,71.5,29.89,SSE,159,2.0,24.0,92,0.00,,,0.00,Wunderground v.1.15,2013-06-02 08:56:00,
2013-06-02 04:02:00,73.9,71.4,29.88,SSE,155,2.0,24.0,92,0.00,,,0.00,Wunderground v.1.15,2013-06-02 09:02:00,
2013-06-02 04:08:00,73.9,71.4,29.89,SSW,211,1.0,24.0,92,0.00,,,0.00,Wunderground v.1.15,2013-06-02 09:08:00,
2013-06-02 04:14:00,73.5,70.4,29.89,SSW,202,3.0,24.0,90,0.00,,,0.00,Wunderground v.1.15,2013-06-02 09:14:00,
2013-06-02 04:20:00,70.4,67.3,29.89,NE,39,10.0,10.0,90,0.96,,,0.04,Wunderground v.1.15,2013-06-02 09:20:00,
2013-06-02 04:26:00,68.4,66.3,29.89,NNE,30,11.0,24.0,93,0.61,,,0.09,Wunderground v.1.15,2013-06-02 09:26:00,
2013-06-02 04:32:00,67.3,65.8,29.89,NNE,33,11.0,24.0,95,1.57,,,0.17,Wunderground v.1.15,2013-06-02 09:32:00,
2013-06-02 04:38:00,66.7,65.5,29.91,NE,46,9.0,24.0,96,2.98,,,0.41,Wunderground v.1.15,2013-06-02 09:38:00,
2013-06-02 04:44:00,66.0,64.8,29.91,SSW,205,6.0,24.0,96,0.42,,,0.54,Wunderground v.1.15,2013-06-02 09:44:00,
2013-06-02 04:50:00,65.6,64.7,29.91,East,81,3.0,3.0,97,0.12,,,0.55,Wunderground v.1.15,2013-06-02 09:50:00,
2013-06-02 04:56:00,65.4,64.5,29.92,ESE,104,1.0,24.0,97,0.05,,,0.55,Wunderground v.1.15,2013-06-02 09:56:00,
2013-06-02 05:02:00,65.4,64.5,29.91,NNE,19,1.0,24.0,97,0.04,,,0.55,Wunderground v.1.15,2013-06-02 10:02:00,
2013-06-02 05:08:00,65.9,65.3,29.93,NNW,345,4.0,24.0,98,0.00,,,0.55,Wunderground v.1.15,2013-06-02 10:08:00,
2013-06-02 05:14:00,66.1,65.5,29.93,NE,43,3.0,24.0,98,0.47,,,0.58,Wunderground v.1.15,2013-06-02 10:14:00,
2013-06-02 05:20:00,66.3,65.7,29.95,ESE,105,2.0,2.0,98,0.09,,,0.58,Wunderground v.1.15,2013-06-02 10:20:00,
2013-06-02 05:26:00,66.4,65.8,29.94,NE,46,2.0,24.0,98,0.05,,,0.58,Wunderground v.1.15,2013-06-02 10:26:00,
2013-06-02 05:32:00,66.3,65.7,29.94,NNE,12,5.0,24.0,98,0.05,,,0.59,Wunderground v.1.15,2013-06-02 10:32:00,
2013-06-02 05:38:00,66.1,65.5,29.93,ENE,66,7.0,24.0,98,0.05,,,0.59,Wunderground v.1.15,2013-06-02 10:38:00,
2013-06-02 05:44:00,66.0,65.4,29.93,NNE,22,7.0,24.0,98,0.00,,,0.59,Wunderground v.1.15,2013-06-02 10:44:00,
2013-06-02 05:50:00,65.6,64.7,29.92,NNE,20,6.0,24.0,97,0.00,,,0.59,Wunderground v.1.15,2013-06-02 10:50:00,
2013-06-02 05:56:00,65.2,64.3,29.92,ENE,57,7.0,24.0,97,0.00,,,0.59,Wunderground v.1.15,2013-06-02 10:56:00,
2013-06-02 06:02:00,64.9,64.0,29.92,NE,39,8.0,9.0,97,0.00,,,0.59,Wunderground v.1.15,2013-06-02 11:02:00,
2013-06-02 06:08:00,64.5,63.6,29.93,NNE,14,7.0,9.0,97,0.00,,,0.59,Wunderground v.1.15,2013-06-02 11:08:00,
2013-06-02 06:14:00,64.4,63.5,29.94,NE,36,7.0,13.0,97,0.00,,,0.59,Wunderground v.1.15,2013-06-02 11:14:00,
2013-06-02 06:20:00,64.5,63.6,29.93,NNE,33,8.0,8.0,97,0.00,,,0.59,Wunderground v.1.15,2013-06-02 11:20:00,
2013-06-02 06:26:00,64.5,63.6,29.94,NNE,30,9.0,13.0,97,0.00,,,0.59,Wunderground v.1.15,2013-06-02 11:26:00,
2013-06-02 06:32:00,64.6,63.7,29.94,NNE,23,7.0,8.0,97,0.00,,,0.59,Wunderground v.1.15,2013-06-02 11:32:00,
2013-06-02 06:38:00,64.7,63.8,29.94,NNE,31,5.0,10.0,97,0.00,,,0.59,Wunderground v.1.15,2013-06-02 11:38:00,
2013-06-02 06:44:00,64.9,64.0,29.94,NE,41,7.0,9.0,97,0.00,,,0.59,Wunderground v.1.15,2013-06-02 11:44:00,
2013-06-02 06:50:00,65.0,63.8,29.93,NNE,13,9.0,9.0,96,0.00,,,0.59,Wunderground v.1.15,2013-06-02 11:50:00,
2013-06-02 06:56:00,65.0,63.5,29.94,North,8,9.0,14.0,95,0.00,,,0.59,Wunderground v.1.15,2013-06-02 11:56:00,
2013-06-02 07:02:00,65.0,63.5,29.94,NNE,23,7.0,9.0,95,0.00,,,0.59,Wunderground v.1.15,2013-06-02 12:02:00,
2013-06-02 07:08:00,65.0,63.5,29.94,NNE,30,7.0,14.0,95,0.00,,,0.59,Wunderground v.1.15,2013-06-02 12:08:00,
2013-06-02 07:14:00,65.0,63.2,29.94,NE,39,8.0,14.0,94,0.00,,,0.59,Wunderground v.1.15,2013-06-02 12:14:00,
2013-06-02 07:20:00,65.1,63.6,29.94,NE,39,7.0,7.0,95,0.00,,,0.59,Wunderground v.1.15,2013-06-02 12:20:00,
2013-06-02 07:26:00,65.2,63.7,29.94,NE,35,5.0,14.0,95,0.00,,,0.59,Wunderground v.1.15,2013-06-02 12:26:00,
2013-06-02 07:32:00,65.4,63.9,29.95,NNE,20,4.0,14.0,95,0.00,,,0.59,Wunderground v.1.15,2013-06-02 12:32:00,
2013-06-02 07:38:00,65.4,63.9,29.94,NNE,30,6.0,14.0,95,0.00,,,0.59,Wunderground v.1.15,2013-06-02 12:38:00,
2013-06-02 07:44:00,65.3,63.8,29.95,NNE,19,6.0,14.0,95,0.00,,,0.59,Wunderground v.1.15,2013-06-02 12:44:00,
2013-06-02 07:50:00,65.3,64.1,29.95,NNE,28,5.0,5.0,96,0.00,,,0.59,Wunderground v.1.15,2013-06-02 12:50:00,
2013-06-02 07:56:00,65.3,64.1,29.96,ENE,67,4.0,14.0,96,0.00,,,0.59,Wunderground v.1.15,2013-06-02 12:56:00,
2013-06-02 08:02:00,65.2,63.7,29.96,East,81,4.0,14.0,95,0.00,,,0.59,Wunderground v.1.15,2013-06-02 13:02:00,
2013-06-02 08:08:00,65.1,63.6,29.97,ENE,58,4.0,14.0,95,0.00,,,0.59,Wunderground v.1.15,2013-06-02 13:08:00,
2013-06-02 08:14:00,65.1,63.6,29.97,NE,41,4.0,14.0,95,0.00,,,0.59,Wunderground v.1.15,2013-06-02 13:14:00,
2013-06-02 08:20:00,65.0,63.5,29.97,NNE,12,4.0,14.0,95,0.00,,,0.59,Wunderground v.1.15,2013-06-02 13:20:00,
2013-06-02 08:26:00,65.0,63.5,29.97,North,6,4.0,14.0,95,0.00,,,0.59,Wunderground v.1.15,2013-06-02 13:26:00,
2013-06-02 08:32:00,64.9,63.4,29.98,NNE,18,4.0,14.0,95,0.00,,,0.59,Wunderground v.1.15,2013-06-02 13:32:00,
2013-06-02 08:38:00,64.9,63.4,29.99,ENE,77,4.0,14.0,95,0.00,,,0.59,Wunderground v.1.15,2013-06-02 13:38:00,
2013-06-02 08:44:00,65.0,63.8,30.00,NNE,32,3.0,14.0,96,0.00,,,0.59,Wunderground v.1.15,2013-06-02 13:44:00,
2013-06-02 08:50:00,65.0,63.8,30.00,NNE,33,2.0,14.0,96,0.00,,,0.59,Wunderground v.1.15,2013-06-02 13:50:00,
2013-06-02 08:56:00,65.1,63.9,30.00,NE,44,3.0,14.0,96,0.00,,,0.59,Wunderground v.1.15,2013-06-02 13:56:00,
2013-06-02 09:02:00,65.1,63.9,30.01,NNE,27,4.0,14.0,96,0.00,,,0.59,Wunderground v.1.15,2013-06-02 14:02:00,
2013-06-02 09:08:00,65.3,64.1,30.01,East,85,3.0,14.0,96,0.00,,,0.59,Wunderground v.1.15,2013-06-02 14:08:00,
2013-06-02 09:14:00,65.3,64.1,30.01,NE,41,4.0,14.0,96,0.00,,,0.59,Wunderground v.1.15,2013-06-02 14:14:00,
2013-06-02 09:20:00,65.4,64.2,30.01,NNE,16,5.0,14.0,96,0.00,,,0.59,Wunderground v.1.15,2013-06-02 14:20:00,
2013-06-02 09:26:00,65.5,64.3,30.01,North,6,4.0,14.0,96,0.00,,,0.59,Wunderground v.1.15,2013-06-02 14:26:00,
2013-06-02 09:32:00,65.7,64.5,30.01,NNE,16,2.0,14.0,96,0.00,,,0.59,Wunderground v.1.15,2013-06-02 14:32:00,
2013-06-02 09:38:00,65.9,65.0,30.01,North,6,2.0,14.0,97,0.00,,,0.59,Wunderground v.1.15,2013-06-02 14:38:00,
2013-06-02 09:44:00,66.1,64.9,30.01,NNE,30,3.0,14.0,96,0.00,,,0.59,Wunderground v.1.15,2013-06-02 14:44:00,
2013-06-02 09:50:00,66.3,65.1,30.01,NE,53,3.0,14.0,96,0.00,,,0.59,Wunderground v.1.15,2013-06-02 14:50:00,
2013-06-02 09:56:00,66.7,65.5,30.02,North,351,3.0,14.0,96,0.00,,,0.59,Wunderground v.1.15,2013-06-02 14:56:00,
2013-06-02 10:02:00,67.0,65.5,30.02,NNE,20,4.0,5.0,95,0.00,,,0.59,Wunderground v.1.15,2013-06-02 15:02:00,
2013-06-02 10:08:00,67.4,65.3,30.02,NE,41,4.0,14.0,93,0.00,,,0.59,Wunderground v.1.15,2013-06-02 15:08:00,
2013-06-02 10:14:00,67.8,65.4,30.03,NNE,33,3.0,14.0,92,0.00,,,0.59,Wunderground v.1.15,2013-06-02 15:14:00,
2013-06-02 10:20:00,68.0,65.3,30.03,ENE,61,4.0,4.0,91,0.00,,,0.59,Wunderground v.1.15,2013-06-02 15:20:00,
2013-06-02 10:26:00,68.1,64.7,30.03,NE,44,4.0,14.0,89,0.00,,,0.59,Wunderground v.1.15,2013-06-02 15:26:00,
2013-06-02 10:32:00,68.4,65.0,30.03,North,6,3.0,14.0,89,0.00,,,0.59,Wunderground v.1.15,2013-06-02 15:32:00,
2013-06-02 10:38:00,68.7,65.0,30.03,NNW,346,4.0,14.0,88,0.00,,,0.59,Wunderground v.1.15,2013-06-02 15:38:00,
2013-06-02 10:44:00,68.9,64.9,30.03,NE,48,5.0,14.0,87,0.00,,,0.59,Wunderground v.1.15,2013-06-02 15:44:00,
2013-06-02 10:50:00,69.4,65.4,30.03,North,358,4.0,4.0,87,0.00,,,0.59,Wunderground v.1.15,2013-06-02 15:50:00,
2013-06-02 10:56:00,70.2,64.8,30.04,NNE,23,3.0,14.0,83,0.00,,,0.59,Wunderground v.1.15,2013-06-02 15:56:00,
2013-06-02 11:02:00,69.8,64.4,30.03,North,356,5.0,14.0,83,0.00,,,0.59,Wunderground v.1.15,2013-06-02 16:02:00,
2013-06-02 11:08:00,69.7,64.0,30.03,NNE,33,6.0,14.0,82,0.00,,,0.59,Wunderground v.1.15,2013-06-02 16:08:00,
2013-06-02 11:14:00,69.9,64.2,30.03,NNE,33,5.0,14.0,82,0.00,,,0.59,Wunderground v.1.15,2013-06-02 16:14:00,
2013-06-02 11:20:00,70.2,63.0,30.03,North,4,5.0,14.0,78,0.00,,,0.59,Wunderground v.1.15,2013-06-02 16:20:00,
2013-06-02 11:26:00,70.7,63.1,30.03,North,351,6.0,14.0,77,0.00,,,0.59,Wunderground v.1.15,2013-06-02 16:26:00,
2013-06-02 11:32:00,71.4,63.4,30.02,NNE,27,5.0,6.0,76,0.00,,,0.59,Wunderground v.1.15,2013-06-02 16:32:00,
2013-06-02 11:38:00,72.2,64.2,30.02,NNE,25,4.0,14.0,76,0.00,,,0.59,Wunderground v.1.15,2013-06-02 16:38:00,
2013-06-02 11:44:00,72.6,65.3,30.02,NNE,16,5.0,14.0,78,0.00,,,0.59,Wunderground v.1.15,2013-06-02 16:44:00,
2013-06-02 11:50:00,72.8,64.4,30.02,NNE,15,5.0,14.0,75,0.00,,,0.59,Wunderground v.1.15,2013-06-02 16:50:00,
2013-06-02 11:56:00,73.3,62.5,30.01,NNE,12,6.0,14.0,69,0.00,,,0.59,Wunderground v.1.15,2013-06-02 16:56:00,
2013-06-02 12:02:00,73.9,62.7,30.01,NNE,33,5.0,14.0,68,0.00,,,0.59,Wunderground v.1.15,2013-06-02 17:02:00,
2013-06-02 12:08:00,74.7,64.7,30.01,NE,44,4.0,14.0,71,0.00,,,0.59,Wunderground v.1.15,2013-06-02 17:08:00,
2013-06-02 12:14:00,75.0,64.1,30.01,North,349,5.0,14.0,69,0.00,,,0.59,Wunderground v.1.15,2013-06-02 17:14:00,
2013-06-02 12:20:00,75.4,64.5,30.01,ESE,120,5.0,5.0,69,0.00,,,0.59,Wunderground v.1.15,2013-06-02 17:20:00,
2013-06-02 12:26:00,75.9,65.0,30.01,NNE,23,4.0,14.0,69,0.00,,,0.59,Wunderground v.1.15,2013-06-02 17:26:00,
2013-06-02 12:32:00,75.8,63.2,30.01,NE,39,5.0,14.0,65,0.00,,,0.59,Wunderground v.1.15,2013-06-02 17:32:00,
2013-06-02 12:38:00,75.9,63.7,30.01,NNW,333,6.0,14.0,66,0.00,,,0.59,Wunderground v.1.15,2013-06-02 17:38:00,
2013-06-02 12:44:00,76.0,62.5,30.01,NE,44,5.0,14.0,63,0.00,,,0.59,Wunderground v.1.15,2013-06-02 17:44:00,
2013-06-02 12:50:00,76.6,64.4,30.01,NE,35,5.0,5.0,66,0.00,,,0.59,Wunderground v.1.15,2013-06-02 17:50:00,
2013-06-02 12:56:00,76.9,63.3,30.01,East,82,5.0,14.0,63,0.00,,,0.59,Wunderground v.1.15,2013-06-02 17:56:00,
2013-06-02 13:02:00,77.5,63.0,30.01,East,79,5.0,14.0,61,0.00,,,0.59,Wunderground v.1.15,2013-06-02 18:02:00,
2013-06-02 13:08:00,77.4,62.9,30.01,NNE,29,4.0,14.0,61,0.00,,,0.59,Wunderground v.1.15,2013-06-02 18:08:00,
2013-06-02 13:14:00,77.3,63.3,30.00,North,9,4.0,14.0,62,0.00,,,0.59,Wunderground v.1.15,2013-06-02 18:14:00,
2013-06-02 13:20:00,77.2,62.2,30.00,North,4,6.0,14.0,60,0.00,,,0.59,Wunderground v.1.15,2013-06-02 18:20:00,
2013-06-02 13:26:00,77.6,61.7,30.00,NE,46,6.0,14.0,58,0.00,,,0.59,Wunderground v.1.15,2013-06-02 18:26:00,
2013-06-02 13:32:00,78.0,63.5,30.00,NE,41,4.0,14.0,61,0.00,,,0.59,Wunderground v.1.15,2013-06-02 18:32:00,
2013-06-02 13:38:00,78.5,63.5,30.00,North,4,4.0,14.0,60,0.00,,,0.59,Wunderground v.1.15,2013-06-02 18:38:00,
2013-06-02 13:44:00,78.6,61.1,29.99,NNE,33,5.0,14.0,55,0.00,,,0.59,Wunderground v.1.15,2013-06-02 18:44:00,
2013-06-02 13:50:00,79.1,62.1,29.99,NE,44,5.0,14.0,56,0.00,,,0.59,Wunderground v.1.15,2013-06-02 18:50:00,
2013-06-02 13:56:00,79.0,63.4,29.99,NE,52,4.0,14.0,59,0.00,,,0.59,Wunderground v.1.15,2013-06-02 18:56:00,
2013-06-02 14:02:00,79.3,62.2,29.99,NNE,16,4.0,14.0,56,0.00,,,0.59,Wunderground v.1.15,2013-06-02 19:02:00,
2013-06-02 14:08:00,79.3,61.7,29.99,NNE,32,5.0,14.0,55,0.00,,,0.59,Wunderground v.1.15,2013-06-02 19:08:00,
2013-06-02 14:14:00,79.4,61.8,29.99,NNE,25,5.0,7.0,55,0.00,,,0.59,Wunderground v.1.15,2013-06-02 19:14:00,
2013-06-02 14:20:00,79.1,60.0,29.98,ENE,61,6.0,6.0,52,0.00,,,0.59,Wunderground v.1.15,2013-06-02 19:20:00,
2013-06-02 14:26:00,80.1,62.0,29.98,NNE,20,5.0,14.0,54,0.00,,,0.59,Wunderground v.1.15,2013-06-02 19:26:00,
2013-06-02 14:32:00,79.3,59.0,29.98,NE,35,5.0,14.0,50,0.00,,,0.59,Wunderground v.1.15,2013-06-02 19:32:00,
2013-06-02 14:38:00,78.7,61.7,29.98,NNE,26,5.0,14.0,56,0.00,,,0.59,Wunderground v.1.15,2013-06-02 19:38:00,
2013-06-02 14:44:00,79.2,62.7,29.98,NNE,29,3.0,14.0,57,0.00,,,0.59,Wunderground v.1.15,2013-06-02 19:44:00,
2013-06-02 14:50:00,79.6,60.4,29.98,NNE,23,5.0,14.0,52,0.00,,,0.59,Wunderground v.1.15,2013-06-02 19:50:00,
2013-06-02 14:56:00,79.9,60.2,29.98,NNE,33,6.0,14.0,51,0.00,,,0.59,Wunderground v.1.15,2013-06-02 19:56:00,
2013-06-02 15:02:00,80.4,62.8,29.97,NNE,29,5.0,14.0,55,0.00,,,0.59,Wunderground v.1.15,2013-06-02 20:02:00,
2013-06-02 15:08:00,80.7,61.4,29.97,NNW,338,5.0,14.0,52,0.00,,,0.59,Wunderground v.1.15,2013-06-02 20:08:00,
2013-06-02 15:14:00,80.7,62.5,29.97,NNW,334,5.0,7.0,54,0.00,,,0.59,Wunderground v.1.15,2013-06-02 20:14:00,
2013-06-02 15:20:00,80.5,61.8,29.97,NW,313,6.0,6.0,53,0.00,,,0.59,Wunderground v.1.15,2013-06-02 20:20:00,
2013-06-02 15:26:00,81.0,62.3,29.96,North,8,4.0,14.0,53,0.00,,,0.59,Wunderground v.1.15,2013-06-02 20:26:00,
2013-06-02 15:32:00,80.7,61.4,29.96,North,350,4.0,14.0,52,0.00,,,0.59,Wunderground v.1.15,2013-06-02 20:32:00,
2013-06-02 15:38:00,81.6,62.3,29.95,ENE,75,3.0,14.0,52,0.00,,,0.59,Wunderground v.1.15,2013-06-02 20:38:00,
2013-06-02 15:44:00,81.4,62.1,29.95,NNE,18,3.0,14.0,52,0.00,,,0.59,Wunderground v.1.15,2013-06-02 20:44:00,
2013-06-02 15:50:00,82.1,62.2,29.95,NNE,30,3.0,3.0,51,0.00,,,0.59,Wunderground v.1.15,2013-06-02 20:50:00,
2013-06-02 15:56:00,82.5,63.1,29.94,NNE,29,2.0,14.0,52,0.00,,,0.59,Wunderground v.1.15,2013-06-02 20:56:00,
2013-06-02 16:02:00,81.9,60.3,29.94,NNW,327,4.0,4.0,48,0.00,,,0.59,Wunderground v.1.15,2013-06-02 21:02:00,
2013-06-02 16:08:00,81.5,59.9,29.94,NE,40,4.0,14.0,48,0.00,,,0.59,Wunderground v.1.15,2013-06-02 21:08:00,
2013-06-02 16:14:00,82.4,59.5,29.94,ENE,61,3.0,14.0,46,0.00,,,0.59,Wunderground v.1.15,2013-06-02 21:14:00,
2013-06-02 16:20:00,82.2,60.6,29.93,ENE,71,2.0,2.0,48,0.00,,,0.59,Wunderground v.1.15,2013-06-02 21:20:00,
2013-06-02 16:26:00,82.4,60.7,29.93,NE,56,2.0,14.0,48,0.00,,,0.59,Wunderground v.1.15,2013-06-02 21:26:00,
2013-06-02 16:32:00,82.5,60.8,29.93,NNE,16,3.0,14.0,48,0.00,,,0.59,Wunderground v.1.15,2013-06-02 21:32:00,
2013-06-02 16:38:00,81.8,59.6,29.93,ENE,75,4.0,14.0,47,0.00,,,0.59,Wunderground v.1.15,2013-06-02 21:38:00,
2013-06-02 16:44:00,82.4,61.3,29.93,NNE,12,3.0,14.0,49,0.00,,,0.59,Wunderground v.1.15,2013-06-02 21:44:00,
2013-06-02 16:50:00,82.6,61.5,29.93,SE,127,3.0,3.0,49,0.00,,,0.59,Wunderground v.1.15,2013-06-02 21:50:00,
2013-06-02 16:56:00,82.8,61.1,29.93,NNE,20,3.0,14.0,48,0.00,,,0.59,Wunderground v.1.15,2013-06-02 21:56:00,
2013-06-02 17:02:00,82.7,61.6,29.92,SE,132,3.0,14.0,49,0.00,,,0.59,Wunderground v.1.15,2013-06-02 22:02:00,
2013-06-02 17:08:00,82.8,60.5,29.92,NNE,33,3.0,14.0,47,0.00,,,0.59,Wunderground v.1.15,2013-06-02 22:08:00,
2013-06-02 17:14:00,83.1,61.4,29.92,North,11,3.0,14.0,48,0.00,,,0.59,Wunderground v.1.15,2013-06-02 22:14:00,
2013-06-02 17:20:00,82.7,62.2,29.92,North,354,2.0,14.0,50,0.00,,,0.59,Wunderground v.1.15,2013-06-02 22:20:00,
2013-06-02 17:26:00,82.8,61.1,29.91,ENE,76,3.0,14.0,48,0.00,,,0.59,Wunderground v.1.15,2013-06-02 22:26:00,
2013-06-02 17:32:00,83.1,62.0,29.91,North,1,2.0,6.0,49,0.00,,,0.59,Wunderground v.1.15,2013-06-02 22:32:00,
2013-06-02 17:38:00,83.0,62.4,29.91,SE,124,2.0,14.0,50,0.00,,,0.59,Wunderground v.1.15,2013-06-02 22:38:00,
2013-06-02 17:44:00,82.9,60.6,29.91,North,9,2.0,14.0,47,0.00,,,0.59,Wunderground v.1.15,2013-06-02 22:44:00,
2013-06-02 17:50:00,82.5,62.0,29.90,NE,43,2.0,2.0,50,0.00,,,0.59,Wunderground v.1.15,2013-06-02 22:50:00,
2013-06-02 17:56:00,83.2,62.1,29.90,North,11,2.0,14.0,49,0.00,,,0.59,Wunderground v.1.15,2013-06-02 22:56:00,
2013-06-02 18:02:00,82.8,61.7,29.90,SE,125,2.0,14.0,49,0.00,,,0.59,Wunderground v.1.15,2013-06-02 23:02:00,
2013-06-02 18:08:00,83.1,62.0,29.90,NE,44,2.0,14.0,49,0.00,,,0.59,Wunderground v.1.15,2013-06-02 23:08:00,
2013-06-02 18:14:00,82.7,61.6,29.89,NNE,27,2.0,14.0,49,0.00,,,0.59,Wunderground v.1.15,2013-06-02 23:14:00,
2013-06-02 18:20:00,82.3,61.8,29.89,NNW,337,3.0,14.0,50,0.00,,,0.59,Wunderground v.1.15,2013-06-02 23:20:00,
2013-06-02 18:26:00,82.0,61.5,29.89,North,352,3.0,14.0,50,0.00,,,0.59,Wunderground v.1.15,2013-06-02 23:26:00,
2013-06-02 18:32:00,82.0,63.2,29.89,NNE,24,3.0,14.0,53,0.00,,,0.59,Wunderground v.1.15,2013-06-02 23:32:00,
2013-06-02 18:38:00,82.0,61.5,29.89,NE,35,2.0,14.0,50,0.00,,,0.59,Wunderground v.1.15,2013-06-02 23:38:00,
2013-06-02 18:44:00,82.3,62.4,29.89,NE,34,2.0,14.0,51,0.00,,,0.59,Wunderground v.1.15,2013-06-02 23:44:00,
2013-06-02 18:50:00,82.1,62.7,29.89,NE,49,2.0,14.0,52,0.00,,,0.59,Wunderground v.1.15,2013-06-02 23:50:00,
2013-06-02 18:56:00,81.9,62.0,29.89,NE,38,3.0,14.0,51,0.00,,,0.59,Wunderground v.1.15,2013-06-02 23:56:00,
2013-06-02 19:02:00,81.5,62.2,29.89,ENE,58,3.0,14.0,52,0.00,,,0.59,Wunderground v.1.15,2013-06-03 00:02:00,
2013-06-02 19:08:00,81.4,62.1,29.89,ENE,72,2.0,14.0,52,0.00,,,0.59,Wunderground v.1.15,2013-06-03 00:08:00,
2013-06-02 19:14:00,81.2,61.9,29.89,East,79,1.0,14.0,52,0.00,,,0.59,Wunderground v.1.15,2013-06-03 00:14:00,
2013-06-02 19:20:00,80.8,62.1,29.89,NNE,23,1.0,1.0,53,0.00,,,0.59,Wunderground v.1.15,2013-06-03 00:20:00,
2013-06-02 19:26:00,80.6,62.9,29.89,North,8,1.0,14.0,55,0.00,,,0.59,Wunderground v.1.15,2013-06-03 00:26:00,
2013-06-02 19:32:00,80.3,62.7,29.89,NNE,18,1.0,14.0,55,0.00,,,0.59,Wunderground v.1.15,2013-06-03 00:32:00,
2013-06-02 19:38:00,79.7,63.1,29.89,NNE,25,1.0,14.0,57,0.00,,,0.59,Wunderground v.1.15,2013-06-03 00:38:00,
2013-06-02 19:44:00,79.3,63.2,29.89,NNE,23,1.0,14.0,58,0.00,,,0.59,Wunderground v.1.15,2013-06-03 00:44:00,
2013-06-02 19:50:00,78.8,63.3,29.89,NNE,25,1.0,1.0,59,0.00,,,0.59,Wunderground v.1.15,2013-06-03 00:50:00,
2013-06-02 19:56:00,78.1,62.6,29.89,NNE,23,0.0,14.0,59,0.00,,,0.59,Wunderground v.1.15,2013-06-03 00:56:00,
2013-06-02 20:02:00,77.8,63.3,29.89,NNE,27,1.0,14.0,61,0.00,,,0.59,Wunderground v.1.15,2013-06-03 01:02:00,
2013-06-02 20:08:00,77.4,62.9,29.89,ENE,60,0.0,14.0,61,0.00,,,0.59,Wunderground v.1.15,2013-06-03 01:08:00,
2013-06-02 20:14:00,76.9,62.4,29.89,NE,56,0.0,14.0,61,0.00,,,0.59,Wunderground v.1.15,2013-06-03 01:14:00,
2013-06-02 20:20:00,76.2,62.2,29.89,ENE,57,0.0,14.0,62,0.00,,,0.59,Wunderground v.1.15,2013-06-03 01:20:00,
2013-06-02 20:26:00,75.5,62.0,29.89,NE,43,0.0,14.0,63,0.00,,,0.59,Wunderground v.1.15,2013-06-03 01:26:00,
2013-06-02 20:32:00,74.9,61.9,29.89,NE,47,0.0,14.0,64,0.00,,,0.59,Wunderground v.1.15,2013-06-03 01:32:00,
2013-06-02 20:38:00,74.6,62.1,29.89,NE,39,0.0,14.0,65,0.00,,,0.59,Wunderground v.1.15,2013-06-03 01:38:00,
2013-06-02 20:44:00,74.2,62.1,29.89,NE,40,0.0,14.0,66,0.00,,,0.59,Wunderground v.1.15,2013-06-03 01:44:00,
2013-06-02 20:50:00,74.2,61.7,29.89,NNE,30,1.0,1.0,65,0.00,,,0.59,Wunderground v.1.15,2013-06-03 01:50:00,
2013-06-02 20:56:00,74.2,61.7,29.89,NE,56,1.0,14.0,65,0.00,,,0.59,Wunderground v.1.15,2013-06-03 01:56:00,
2013-06-02 21:02:00,74.1,61.1,29.89,ENE,75,1.0,14.0,64,0.00,,,0.59,Wunderground v.1.15,2013-06-03 02:02:00,
2013-06-02 21:08:00,73.9,61.0,29.88,ENE,75,1.0,14.0,64,0.00,,,0.59,Wunderground v.1.15,2013-06-03 02:08:00,
2013-06-02 21:14:00,73.7,60.8,29.89,ENE,65,1.0,14.0,64,0.00,,,0.59,Wunderground v.1.15,2013-06-03 02:14:00,
2013-06-02 21:20:00,73.6,61.1,29.89,NE,56,1.0,14.0,65,0.00,,,0.59,Wunderground v.1.15,2013-06-03 02:20:00,
2013-06-02 21:26:00,73.5,60.6,29.89,ENE,60,1.0,14.0,64,0.00,,,0.59,Wunderground v.1.15,2013-06-03 02:26:00,
2013-06-02 21:32:00,73.3,60.8,29.89,East,84,1.0,14.0,65,0.00,,,0.59,Wunderground v.1.15,2013-06-03 02:32:00,
2013-06-02 21:38:00,73.0,61.0,29.89,ENE,75,1.0,14.0,66,0.00,,,0.59,Wunderground v.1.15,2013-06-03 02:38:00,
2013-06-02 21:44:00,72.9,60.9,29.89,ESE,113,1.0,14.0,66,0.00,,,0.59,Wunderground v.1.15,2013-06-03 02:44:00,
2013-06-02 21:50:00,72.8,60.8,29.89,East,100,1.0,1.0,66,0.00,,,0.59,Wunderground v.1.15,2013-06-03 02:50:00,
2013-06-02 21:56:00,72.8,60.8,29.89,ESE,105,1.0,14.0,66,0.00,,,0.59,Wunderground v.1.15,2013-06-03 02:56:00,
2013-06-02 22:02:00,72.7,61.1,29.89,ESE,110,1.0,14.0,67,0.00,,,0.59,Wunderground v.1.15,2013-06-03 03:02:00,
2013-06-02 22:08:00,72.6,61.0,29.89,East,95,1.0,14.0,67,0.00,,,0.59,Wunderground v.1.15,2013-06-03 03:08:00,
2013-06-02 22:14:00,72.5,60.9,29.89,East,91,1.0,14.0,67,0.00,,,0.59,Wunderground v.1.15,2013-06-03 03:14:00,
2013-06-02 22:20:00,72.4,61.2,29.89,ESE,122,1.0,14.0,68,0.00,,,0.59,Wunderground v.1.15,2013-06-03 03:20:00,
2013-06-02 22:26:00,72.5,61.7,29.90,ESE,120,2.0,14.0,69,0.00,,,0.59,Wunderground v.1.15,2013-06-03 03:26:00,
2013-06-02 22:32:00,72.4,61.7,29.90,ESE,105,3.0,14.0,69,0.00,,,0.59,Wunderground v.1.15,2013-06-03 03:32:00,
2013-06-02 22:38:00,72.1,61.8,29.90,ESE,110,3.0,14.0,70,0.00,,,0.59,Wunderground v.1.15,2013-06-03 03:38:00,
2013-06-02 22:44:00,71.7,61.8,29.90,SE,139,2.0,14.0,71,0.00,,,0.59,Wunderground v.1.15,2013-06-03 03:44:00,
2013-06-02 22:50:00,71.4,62.3,29.91,SE,126,2.0,2.0,73,0.00,,,0.59,Wunderground v.1.15,2013-06-03 03:50:00,
2013-06-02 22:56:00,71.0,62.3,29.91,ESE,119,1.0,14.0,74,0.00,,,0.59,Wunderground v.1.15,2013-06-03 03:56:00,
2013-06-02 23:02:00,70.8,62.5,29.91,SE,141,1.0,2.0,75,0.00,,,0.59,Wunderground v.1.15,2013-06-03 04:02:00,
2013-06-02 23:04:00,70.7,62.4,29.91,ESE,119,1.0,3.0,75,0.00,,,0.59,Wunderground v.1.15,2013-06-03 04:04:00,
2013-06-02 23:06:00,70.8,62.9,29.91,ESE,117,1.0,14.0,76,0.00,,,0.59,Wunderground v.1.15,2013-06-03 04:06:00,
2013-06-02 23:08:00,70.7,62.8,29.92,East,93,1.0,14.0,76,0.00,,,0.59,Wunderground v.1.15,2013-06-03 04:08:00,
2013-06-02 23:12:00,70.7,62.8,29.92,ENE,57,1.0,14.0,76,0.00,,,0.59,Wunderground v.1.15,2013-06-03 04:12:00,
2013-06-02 23:18:00,70.8,62.9,29.92,ENE,69,1.0,14.0,76,0.00,,,0.59,Wunderground v.1.15,2013-06-03 04:18:00,
2013-06-02 23:24:00,70.7,62.8,29.93,SE,127,1.0,14.0,76,0.00,,,0.59,Wunderground v.1.15,2013-06-03 04:24:00,
2013-06-02 23:30:00,70.7,63.1,29.93,ESE,117,2.0,14.0,77,0.00,,,0.59,Wunderground v.1.15,2013-06-03 04:30:00,
2013-06-02 23:36:00,70.6,63.0,29.93,ESE,105,2.0,14.0,77,0.00,,,0.59,Wunderground v.1.15,2013-06-03 04:36:00,
2013-06-02 23:42:00,70.5,62.9,29.93,ESE,122,1.0,14.0,77,0.00,,,0.59,Wunderground v.1.15,2013-06-03 04:42:00,
2013-06-02 23:48:00,70.5,62.9,29.93,SE,132,1.0,14.0,77,0.00,,,0.59,Wunderground v.1.15,2013-06-03 04:48:00,
2013-06-02 23:54:00,70.2,63.0,29.94,East,96,1.0,5.0,78,0.00,,,0.59,Wunderground v.1.15,2013-06-03 04:54:00,